Time;durP1;ratioP1;P1;durP2;ratioP2;P2;SDS_P1;SDS_P2;PMS_P1;PMS_P2;Temp;Humidity;BMP_temperature;BMP_pressure;BME280_temperature;BME280_humidity;BME280_pressure;Samples;Min_cycle;Max_cycle;Signal;HPM_P1;HPM_P2
2022/01/20 00:01:47;;;;;;;14.57;1.50;;;3.60;99.90;;;;;;5032096;28;20469;-78
2022/01/20 00:04:20;;;;;;;5.38;1.65;;;3.60;99.90;;;;;;5028340;28;20052;-79
2022/01/20 00:28:20;;;;;;;21.57;1.57;;;2.60;99.90;;;;;;5031646;28;20095;-79
2022/01/20 00:30:56;;;;;;;10.73;2.20;;;2.70;99.90;;;;;;5015150;28;20495;-80
2022/01/20 00:33:41;;;;;;;9.10;1.10;;;2.80;99.90;;;;;;5016287;28;20056;-79
2022/01/20 00:38:34;;;;;;;12.00;1.87;;;3.10;99.90;;;;;;5014916;28;20104;-79
2022/01/20 00:41:01;;;;;;;4.83;1.00;;;3.30;99.90;;;;;;5031597;28;20076;-80
2022/01/20 00:43:27;;;;;;;23.60;4.00;;;3.40;99.90;;;;;;5031354;28;20046;-79
2022/01/20 00:45:53;;;;;;;16.58;1.50;;;3.50;99.90;;;;;;5031250;28;20137;-80
2022/01/20 00:48:19;;;;;;;15.60;2.25;;;3.60;99.90;;;;;;4997726;28;20081;-78
2022/01/20 00:50:45;;;;;;;12.25;1.83;;;3.60;99.90;;;;;;5015087;28;20084;-79
2022/01/20 00:53:11;;;;;;;21.98;2.80;;;3.80;99.90;;;;;;5014413;28;20077;-80
2022/01/20 00:55:38;;;;;;;13.52;1.65;;;3.90;99.90;;;;;;5031327;28;20490;-79
2022/01/20 00:58:04;;;;;;;10.00;1.00;;;4.00;99.90;;;;;;5014572;28;20050;-80
2022/01/20 01:00:29;;;;;;;15.48;2.10;;;4.10;99.90;;;;;;5014448;28;20045;-80
2022/01/20 01:02:56;;;;;;;11.85;2.20;;;4.10;99.90;;;;;;5030743;28;20561;-79
2022/01/20 01:05:22;;;;;;;21.77;2.45;;;4.30;99.90;;;;;;5031055;28;20192;-80
2022/01/20 01:07:50;;;;;;;10.95;1.52;;;4.40;99.90;;;;;;5014537;28;20393;-78
2022/01/20 01:10:29;;;;;;;7.00;0.95;;;4.40;99.90;;;;;;5030790;28;20099;-79
2022/01/20 01:13:07;;;;;;;3.65;0.85;;;4.00;99.90;;;;;;5014831;28;20049;-78
2022/01/20 01:15:38;;;;;;;6.80;0.55;;;3.70;99.90;;;;;;5003604;28;20060;-80
2022/01/20 01:23:41;;;;;;;6.65;0.63;;;3.30;99.90;;;;;;5030600;28;20041;-81
2022/01/20 01:26:16;;;;;;;15.35;1.98;;;3.30;99.90;;;;;;5030680;28;20120;-78
2022/01/20 01:28:42;;;;;;;7.85;0.70;;;3.40;99.90;;;;;;5030677;28;20052;-78
2022/01/20 01:34:00;;;;;;;12.10;1.52;;;3.30;99.90;;;;;;5030843;28;20053;-80
2022/01/20 01:36:28;;;;;;;6.75;0.50;;;3.30;99.90;;;;;;5014376;28;20123;-78
2022/01/20 01:38:54;;;;;;;15.73;1.73;;;3.30;99.90;;;;;;5014605;28;20500;-78
2022/01/20 01:41:31;;;;;;;12.95;1.98;;;3.30;99.90;;;;;;5014653;28;20076;-78
2022/01/20 01:44:01;;;;;;;22.65;1.50;;;3.40;99.90;;;;;;5030848;28;20128;-80
2022/01/20 01:46:27;;;;;;;20.00;1.77;;;3.50;99.90;;;;;;5030920;28;20056;-80
2022/01/20 01:48:52;;;;;;;11.43;2.13;;;3.50;99.90;;;;;;5013850;28;20500;-78
2022/01/20 01:51:18;;;;;;;16.05;2.08;;;3.60;99.90;;;;;;5014472;28;20132;-78
2022/01/20 01:53:44;;;;;;;7.57;1.55;;;3.80;99.90;;;;;;5014194;28;20563;-80
2022/01/20 01:56:10;;;;;;;15.98;2.63;;;4.00;99.90;;;;;;5014104;28;20488;-79
2022/01/20 01:58:35;;;;;;;8.13;1.88;;;3.90;99.90;;;;;;5030437;28;20053;-80
2022/01/20 02:01:02;;;;;;;9.85;2.30;;;3.80;99.90;;;;;;5034057;28;20046;-80
2022/01/20 02:03:30;;;;;;;11.95;1.58;;;3.80;99.90;;;;;;5017288;28;20492;-81
2022/01/20 02:08:59;;;;;;;8.18;1.23;;;3.70;99.90;;;;;;5033641;28;20095;-79
2022/01/20 02:19:39;;;;;;;20.02;2.22;;;3.10;99.90;;;;;;5033369;28;20056;-80
2022/01/20 02:22:05;;;;;;;10.23;1.53;;;2.60;99.90;;;;;;5035039;28;20487;-78
2022/01/20 02:24:31;;;;;;;12.63;3.00;;;2.50;99.90;;;;;;5034121;28;20128;-78
2022/01/20 02:26:58;;;;;;;17.52;2.65;;;2.50;99.90;;;;;;5017894;28;20053;-78
2022/01/20 02:29:24;;;;;;;16.87;2.30;;;2.60;99.90;;;;;;5016562;28;20080;-78
2022/01/20 02:31:55;;;;;;;12.67;3.27;;;2.70;99.90;;;;;;5034015;28;20133;-77
2022/01/20 02:34:22;;;;;;;31.60;5.13;;;2.70;99.90;;;;;;5033790;28;20077;-77
2022/01/20 02:36:48;;;;;;;31.05;3.72;;;2.80;99.90;;;;;;5017402;28;20104;-81
2022/01/20 02:44:57;;;;;;;20.58;2.70;;;2.70;99.90;;;;;;5019541;28;20068;-80
2022/01/20 02:47:28;;;;;;;13.73;2.47;;;2.90;99.90;;;;;;5033439;28;20049;-81
2022/01/20 02:49:54;;;;;;;28.80;4.00;;;3.00;99.90;;;;;;5017155;28;20500;-78
2022/01/20 02:52:21;;;;;;;23.63;3.78;;;3.00;99.90;;;;;;5033595;28;20054;-78
2022/01/20 02:54:47;;;;;;;24.77;4.25;;;3.10;99.90;;;;;;5033856;28;20104;-79
2022/01/20 02:57:13;;;;;;;20.42;3.00;;;3.10;99.90;;;;;;5017032;28;20045;-78
2022/01/20 02:59:39;;;;;;;26.15;3.15;;;3.10;99.90;;;;;;5033229;28;20524;-81
2022/01/20 03:02:06;;;;;;;16.85;2.90;;;3.10;99.90;;;;;;5016650;28;20483;-78
2022/01/20 03:04:32;;;;;;;21.13;2.83;;;3.00;99.90;;;;;;5032829;28;20103;-81
2022/01/20 03:06:58;;;;;;;15.60;2.95;;;2.90;99.90;;;;;;5033033;28;20049;-78
2022/01/20 03:09:25;;;;;;;17.10;2.53;;;2.90;99.90;;;;;;5033033;28;20140;-78
2022/01/20 03:11:51;;;;;;;20.85;3.28;;;2.90;99.90;;;;;;5032915;28;20095;-81
2022/01/20 03:14:18;;;;;;;16.27;2.35;;;2.90;99.90;;;;;;5033882;28;20492;-80
2022/01/20 03:16:45;;;;;;;30.45;4.20;;;3.00;99.90;;;;;;5016636;28;20044;-78
2022/01/20 03:19:11;;;;;;;13.40;3.50;;;3.10;99.90;;;;;;5016593;28;20045;-79
2022/01/20 03:21:38;;;;;;;16.88;2.03;;;3.10;99.90;;;;;;5015970;28;20556;-78
2022/01/20 03:24:05;;;;;;;10.75;1.60;;;3.10;99.90;;;;;;5000402;28;20140;-78
2022/01/20 03:26:31;;;;;;;15.23;1.92;;;3.20;99.90;;;;;;5032673;28;20045;-78
2022/01/20 03:28:57;;;;;;;14.13;2.30;;;3.10;99.90;;;;;;5016265;28;20050;-78
2022/01/20 03:31:24;;;;;;;11.18;2.08;;;3.10;99.90;;;;;;5016251;28;20393;-81
2022/01/20 03:33:50;;;;;;;6.28;1.40;;;3.30;99.90;;;;;;5015620;28;20049;-81
2022/01/20 03:36:15;;;;;;;8.25;0.98;;;3.30;99.90;;;;;;5016294;28;20045;-78
2022/01/20 03:38:41;;;;;;;7.28;1.45;;;3.30;99.90;;;;;;5032233;28;20129;-80
2022/01/20 03:41:07;;;;;;;15.43;1.70;;;3.30;99.90;;;;;;5032971;28;20037;-78
2022/01/20 03:43:33;;;;;;;14.32;1.65;;;3.30;93.20;;;;;;5016000;28;20399;-78
2022/01/20 03:46:00;;;;;;;15.63;2.55;;;3.30;89.50;;;;;;5016207;28;20045;-79
2022/01/20 03:48:29;;;;;;;12.00;1.77;;;3.30;65.30;;;;;;4999653;28;20049;-80
2022/01/20 03:51:00;;;;;;;14.05;2.45;;;3.20;1.00;;;;;;5032486;28;20506;-78
2022/01/20 03:53:32;;;;;;;18.13;3.42;;;3.10;1.00;;;;;;5032422;28;20041;-78
2022/01/20 03:55:59;;;;;;;15.35;2.00;;;3.00;1.00;;;;;;5027132;28;20045;-78
2022/01/20 03:58:25;;;;;;;11.07;1.60;;;3.10;1.00;;;;;;5015661;28;20057;-78
2022/01/20 04:00:52;;;;;;;13.88;2.08;;;3.10;1.00;;;;;;5032221;28;20041;-80
2022/01/20 04:03:18;;;;;;;14.00;1.67;;;3.00;1.00;;;;;;5032126;28;20099;-80
2022/01/20 04:05:56;;;;;;;14.60;1.88;;;2.90;1.00;;;;;;5015477;28;20042;-81
2022/01/20 04:08:27;;;;;;;13.25;1.73;;;2.80;1.00;;;;;;5031928;28;20041;-78
2022/01/20 04:10:53;;;;;;;10.57;2.10;;;2.80;1.00;;;;;;5015150;28;20424;-78
2022/01/20 04:13:19;;;;;;;13.23;1.80;;;2.70;1.00;;;;;;5032095;28;20045;-80
2022/01/20 04:15:48;;;;;;;9.15;1.67;;;2.60;1.00;;;;;;5015670;28;20053;-79
2022/01/20 04:18:21;;;;;;;10.67;2.03;;;2.60;1.00;;;;;;5031817;28;20087;-78
2022/01/20 04:20:47;;;;;;;22.48;2.08;;;2.40;1.00;;;;;;5031218;28;20211;-78
2022/01/20 04:23:13;;;;;;;15.07;1.58;;;2.40;1.00;;;;;;5014304;28;20034;-81
2022/01/20 04:25:39;;;;;;;13.55;2.10;;;2.50;1.00;;;;;;5031470;28;20037;-80
2022/01/20 04:28:04;;;;;;;9.88;1.75;;;3.00;1.00;;;;;;5014979;28;20042;-81
2022/01/20 04:30:33;;;;;;;16.45;2.53;;;2.90;1.00;;;;;;4999211;28;20088;-79
2022/01/20 04:32:59;;;;;;;11.10;1.60;;;2.80;1.00;;;;;;5031792;28;20052;-79
2022/01/20 04:35:24;;;;;;;15.73;2.25;;;2.80;1.00;;;;;;5031027;28;20052;-79
2022/01/20 04:37:52;;;;;;;17.10;3.85;;;2.80;1.00;;;;;;5015285;28;20511;-79
2022/01/20 04:40:20;;;;;;;20.42;3.35;;;2.80;4.50;;;;;;5031511;28;20179;-81
2022/01/20 04:42:48;;;;;;;15.23;2.23;;;2.80;9.30;;;;;;5031738;28;20422;-81
2022/01/20 04:45:20;;;;;;;13.30;1.92;;;2.70;9.40;;;;;;5015029;28;20045;-82
2022/01/20 04:58:24;;;;;;;12.95;1.83;;;2.60;20.00;;;;;;5031721;28;20127;-82
2022/01/20 05:00:50;;;;;;;12.10;1.40;;;2.30;99.90;;;;;;4997277;28;20049;-80
2022/01/20 05:03:16;;;;;;;7.03;1.57;;;1.90;99.90;;;;;;5014993;28;20443;-80
2022/01/20 05:05:41;;;;;;;8.50;0.90;;;1.60;99.90;;;;;;5014020;28;21708;-81
2022/01/20 05:08:07;;;;;;;1.70;0.40;;;1.60;48.60;;;;;;5031259;28;20048;-80
2022/01/20 05:10:34;;;;;;;2.97;0.53;;;1.70;1.00;;;;;;5014504;28;20045;-79
2022/01/20 05:13:10;;;;;;;5.10;0.60;;;1.90;1.00;;;;;;5030627;28;20052;-80
2022/01/20 05:15:35;;;;;;;4.60;1.13;;;1.90;1.00;;;;;;5031234;28;20048;-79
2022/01/20 05:18:01;;;;;;;10.03;1.07;;;1.80;1.00;;;;;;4998395;28;20087;-80
2022/01/20 05:20:27;;;;;;;6.60;1.17;;;1.70;1.00;;;;;;5030560;28;20050;-80
2022/01/20 05:22:53;;;;;;;15.70;1.87;;;1.70;3.30;;;;;;5014528;28;20073;-81
2022/01/20 05:25:19;;;;;;;6.47;1.30;;;1.80;19.10;;;;;;5014375;28;20099;-79
2022/01/20 05:27:44;;;;;;;6.60;1.63;;;1.80;47.00;;;;;;5031011;28;20045;-81
2022/01/20 05:30:12;;;;;;;11.13;2.20;;;1.90;25.50;;;;;;4997635;28;20092;-79
2022/01/20 05:32:38;;;;;;;8.20;1.50;;;2.10;19.80;;;;;;5014347;28;20087;-80
2022/01/20 05:35:04;;;;;;;15.30;1.80;;;2.30;6.80;;;;;;5017500;28;20045;-81
2022/01/20 05:37:30;;;;;;;20.27;2.50;;;2.30;1.00;;;;;;5002219;28;20111;-81
2022/01/20 05:39:56;;;;;;;13.87;2.37;;;2.30;6.00;;;;;;5034720;28;20041;-80
2022/01/20 05:42:21;;;;;;;8.43;1.60;;;2.30;1.00;;;;;;5018314;28;20048;-81
2022/01/20 05:44:50;;;;;;;16.13;2.60;;;2.30;1.00;;;;;;5018068;28;20088;-81
2022/01/20 05:47:25;;;;;;;9.37;1.83;;;2.30;1.00;;;;;;5018943;28;20053;-81
2022/01/20 05:49:51;;;;;;;20.75;2.38;;;2.40;5.30;;;;;;5018019;28;20099;-81
2022/01/20 05:52:19;;;;;;;14.15;2.25;;;2.40;1.00;;;;;;5018295;28;20140;-79
2022/01/20 05:54:45;;;;;;;19.27;2.07;;;2.60;1.00;;;;;;5018792;28;20503;-80
2022/01/20 05:57:11;;;;;;;16.40;2.17;;;2.70;1.00;;;;;;5018117;28;20128;-80
2022/01/20 05:59:37;;;;;;;7.22;1.58;;;2.80;1.00;;;;;;5017976;28;20171;-82
2022/01/20 06:02:11;;;;;;;18.80;1.70;;;2.90;1.00;;;;;;5018281;28;20048;-82
2022/01/20 06:04:38;;;;;;;6.70;1.48;;;3.00;1.00;;;;;;5018314;28;20530;-81
2022/01/20 06:07:04;;;;;;;8.85;1.83;;;2.90;1.00;;;;;;5001457;28;20040;-80
2022/01/20 06:09:30;;;;;;;9.70;1.77;;;2.80;1.00;;;;;;5018228;28;20042;-81
2022/01/20 06:11:55;;;;;;;11.85;2.38;;;2.60;1.00;;;;;;5034439;28;20041;-79
2022/01/20 06:14:23;;;;;;;6.47;1.77;;;2.50;1.00;;;;;;5033927;28;20050;-81
2022/01/20 06:16:49;;;;;;;12.90;2.08;;;2.50;1.00;;;;;;5034516;28;20095;-81
2022/01/20 06:19:15;;;;;;;15.03;2.73;;;2.50;1.00;;;;;;5034395;28;20042;-80
2022/01/20 06:21:41;;;;;;;11.37;1.70;;;2.50;1.00;;;;;;5033616;28;20053;-82
2022/01/20 06:24:07;;;;;;;13.83;2.87;;;2.50;14.90;;;;;;5034466;28;20040;-81
2022/01/20 06:26:33;;;;;;;11.47;1.97;;;2.40;41.70;;;;;;5034092;28;20033;-82
2022/01/20 06:28:59;;;;;;;14.77;2.65;;;2.40;40.80;;;;;;5034068;28;20052;-80
2022/01/20 06:31:25;;;;;;;12.57;2.00;;;2.50;36.60;;;;;;5000479;28;20061;-82
2022/01/20 06:33:51;;;;;;;11.10;1.85;;;2.50;60.60;;;;;;5017207;28;20496;-81
2022/01/20 06:36:16;;;;;;;8.25;1.63;;;2.30;94.10;;;;;;5000448;28;20037;-81
2022/01/20 06:38:43;;;;;;;8.33;1.17;;;2.10;74.10;;;;;;5033585;28;20038;-81
2022/01/20 06:41:09;;;;;;;8.57;1.53;;;1.90;72.70;;;;;;5017989;28;20046;-80
2022/01/20 06:43:35;;;;;;;6.40;1.07;;;1.80;86.10;;;;;;5016563;28;20518;-82
2022/01/20 06:46:01;;;;;;;13.73;1.40;;;1.70;88.90;;;;;;5032934;28;20046;-81
2022/01/20 06:48:26;;;;;;;12.93;1.43;;;1.70;89.00;;;;;;5016556;28;20053;-81
2022/01/20 06:50:52;;;;;;;20.37;2.13;;;1.70;81.60;;;;;;5016797;28;20052;-81
2022/01/20 06:53:18;;;;;;;16.20;2.10;;;1.70;77.30;;;;;;5000979;28;20057;-82
2022/01/20 06:55:43;;;;;;;9.23;2.10;;;1.90;70.10;;;;;;5033113;28;20136;-80
2022/01/20 06:58:09;;;;;;;13.70;1.90;;;1.90;54.90;;;;;;5016761;28;20511;-81
2022/01/20 07:00:35;;;;;;;8.17;1.33;;;2.00;43.40;;;;;;5016968;28;20038;-81
2022/01/20 07:03:01;;;;;;;10.97;1.77;;;2.00;34.60;;;;;;5017095;28;20048;-80
2022/01/20 07:05:27;;;;;;;16.87;2.23;;;2.10;26.90;;;;;;5016113;28;20037;-82
2022/01/20 07:07:52;;;;;;;14.43;3.23;;;2.30;27.40;;;;;;5016151;28;20046;-82
2022/01/20 07:10:19;;;;;;;12.43;2.53;;;2.70;48.10;;;;;;5016772;28;20045;-82
2022/01/20 07:12:46;;;;;;;11.20;1.60;;;2.40;93.30;;;;;;5032940;28;20048;-82
2022/01/20 07:15:13;;;;;;;17.48;1.92;;;2.10;99.90;;;;;;5032865;28;20120;-80
2022/01/20 07:17:40;;;;;;;12.27;1.57;;;1.90;99.90;;;;;;5017084;28;20045;-80
2022/01/20 07:20:07;;;;;;;13.43;3.10;;;1.80;99.90;;;;;;5032738;28;20157;-80
2022/01/20 07:22:32;;;;;;;14.90;2.87;;;1.70;99.90;;;;;;5016187;28;20041;-80
2022/01/20 07:24:58;;;;;;;9.10;1.97;;;1.60;99.90;;;;;;5032959;28;20103;-80
2022/01/20 07:27:24;;;;;;;15.43;2.60;;;1.70;99.90;;;;;;5016641;28;20042;-81
2022/01/20 07:29:49;;;;;;;9.93;1.47;;;1.80;99.90;;;;;;5032895;28;20148;-81
2022/01/20 07:32:15;;;;;;;9.53;1.60;;;1.80;66.90;;;;;;5016257;28;20058;-81
2022/01/20 07:34:41;;;;;;;18.50;3.00;;;1.90;4.40;;;;;;5032491;28;20038;-81
2022/01/20 07:37:07;;;;;;;14.68;2.63;;;1.90;1.00;;;;;;5032216;28;20092;-80
2022/01/20 07:39:33;;;;;;;10.77;1.67;;;1.90;1.00;;;;;;4996794;28;20045;-80
2022/01/20 07:41:58;;;;;;;16.40;3.10;;;2.20;1.00;;;;;;5016096;28;20057;-81
2022/01/20 07:44:24;;;;;;;9.50;1.77;;;2.00;1.00;;;;;;5015928;28;20049;-81
2022/01/20 07:46:50;;;;;;;11.40;2.22;;;2.00;1.00;;;;;;5031825;28;20061;-82
2022/01/20 07:49:16;;;;;;;7.53;1.67;;;2.00;1.00;;;;;;5032448;28;20046;-82
2022/01/20 07:51:43;;;;;;;13.20;2.17;;;2.10;1.00;;;;;;5032152;28;20037;-80
2022/01/20 07:54:10;;;;;;;11.93;2.40;;;2.40;13.40;;;;;;5016184;28;20049;-82
2022/01/20 07:56:35;;;;;;;7.80;1.40;;;2.30;79.30;;;;;;5016308;28;20112;-81
2022/01/20 07:59:02;;;;;;;11.63;1.87;;;2.10;88.10;;;;;;5031848;28;20072;-82
2022/01/20 08:01:28;;;;;;;10.07;1.58;;;2.20;1.00;;;;;;5032078;28;20400;-81
2022/01/20 08:03:54;;;;;;;6.40;1.07;;;2.20;1.00;;;;;;5015800;28;20048;-82
2022/01/20 08:06:22;;;;;;;9.23;1.23;;;2.30;1.00;;;;;;5014313;28;20073;-80
2022/01/20 08:08:50;;;;;;;11.23;1.57;;;2.30;1.00;;;;;;5015159;28;20048;-81
2022/01/20 08:11:17;;;;;;;14.47;2.27;;;2.20;1.00;;;;;;5015814;28;20362;-80
2022/01/20 08:13:43;;;;;;;14.52;1.88;;;2.30;1.00;;;;;;5031531;28;20065;-82
2022/01/20 08:16:09;;;;;;;12.40;1.53;;;2.50;1.00;;;;;;5014220;28;20531;-80
2022/01/20 08:18:35;;;;;;;11.53;2.23;;;2.60;1.00;;;;;;4997129;28;20416;-80
2022/01/20 08:21:01;;;;;;;16.17;3.22;;;2.80;1.00;;;;;;5013464;28;20037;-82
2022/01/20 08:23:26;;;;;;;6.60;2.08;;;2.80;1.00;;;;;;5030272;28;20041;-80
2022/01/20 08:25:52;;;;;;;10.18;2.08;;;2.90;1.00;;;;;;4998636;28;20120;-80
2022/01/20 08:28:21;;;;;;;12.35;1.70;;;3.00;1.00;;;;;;5031561;28;20132;-82
2022/01/20 08:30:47;;;;;;;10.55;1.55;;;3.00;1.00;;;;;;5031065;28;20084;-81
2022/01/20 08:33:13;;;;;;;12.05;1.80;;;3.00;1.00;;;;;;5015220;28;20077;-81
2022/01/20 08:35:39;;;;;;;15.32;2.20;;;3.00;1.00;;;;;;4998084;28;20526;-81
2022/01/20 08:38:07;;;;;;;7.68;1.70;;;3.20;1.00;;;;;;5015227;28;20399;-80
2022/01/20 08:40:34;;;;;;;12.73;2.22;;;2.90;71.20;;;;;;5015190;28;20561;-80
2022/01/20 08:43:00;;;;;;;11.65;2.03;;;2.10;99.90;;;;;;5015138;28;20055;-82
2022/01/20 08:45:29;;;;;;;7.30;1.40;;;1.60;99.90;;;;;;5014488;28;20533;-81
2022/01/20 08:47:56;;;;;;;13.43;1.77;;;1.60;99.90;;;;;;5012252;28;20107;-80
2022/01/20 08:50:24;;;;;;;10.07;1.30;;;1.50;99.90;;;;;;5030522;28;20088;-81
2022/01/20 08:52:50;;;;;;;10.97;0.90;;;1.40;99.90;;;;;;5014660;28;20073;-80
2022/01/20 08:55:17;;;;;;;9.63;1.93;;;1.30;99.90;;;;;;5014187;28;20045;-80
2022/01/20 08:57:44;;;;;;;12.87;1.73;;;1.20;99.90;;;;;;4995429;28;20519;-81
2022/01/20 09:00:11;;;;;;;10.67;1.50;;;1.00;99.90;;;;;;5018878;28;20103;-81
2022/01/20 09:02:37;;;;;;;6.97;0.93;;;1.20;99.90;;;;;;4998712;28;20049;-81
2022/01/20 09:05:04;;;;;;;13.00;1.57;;;1.40;99.90;;;;;;5014419;28;20052;-79
2022/01/20 09:07:30;;;;;;;11.70;1.90;;;1.60;99.90;;;;;;5014394;28;20496;-79
2022/01/20 09:09:59;;;;;;;8.83;1.63;;;1.70;99.90;;;;;;5029807;28;20053;-80
2022/01/20 09:17:47;;;;;;;11.67;1.50;;;1.50;99.90;;;;;;5031003;28;20107;-82
2022/01/20 09:20:12;;;;;;;25.50;1.95;;;1.60;99.90;;;;;;5030874;28;20551;-80
2022/01/20 09:22:38;;;;;;;9.23;1.87;;;1.60;99.90;;;;;;5015041;28;20049;-80
2022/01/20 09:25:06;;;;;;;16.63;2.10;;;1.50;99.90;;;;;;5031486;28;20045;-80
2022/01/20 09:27:33;;;;;;;8.97;1.93;;;1.50;99.90;;;;;;5031451;28;20532;-82
2022/01/20 09:30:01;;;;;;;11.77;1.97;;;1.50;99.90;;;;;;5031103;28;20415;-82
2022/01/20 09:32:28;;;;;;;15.30;2.57;;;1.50;99.90;;;;;;5031435;28;20045;-81
2022/01/20 09:34:56;;;;;;;17.70;1.70;;;1.50;99.90;;;;;;4997945;28;20048;-80
2022/01/20 09:37:23;;;;;;;16.07;2.27;;;1.50;99.90;;;;;;5013864;28;20131;-81
2022/01/20 09:39:49;;;;;;;24.33;2.73;;;1.60;99.90;;;;;;5030550;28;20192;-80
2022/01/20 09:42:15;;;;;;;23.63;3.27;;;1.90;99.90;;;;;;5030487;28;20216;-81
2022/01/20 09:44:47;;;;;;;19.00;1.73;;;2.30;99.90;;;;;;5030404;28;20553;-80
2022/01/20 09:47:16;;;;;;;13.23;2.22;;;2.60;99.90;;;;;;5030742;28;20045;-80
2022/01/20 09:49:43;;;;;;;9.90;1.90;;;2.60;99.90;;;;;;5013660;28;20045;-82
2022/01/20 09:52:09;;;;;;;10.02;2.38;;;2.50;99.90;;;;;;5013414;28;20407;-80
2022/01/20 09:54:36;;;;;;;17.08;2.80;;;2.40;99.90;;;;;;5030875;28;20142;-80
2022/01/20 09:57:02;;;;;;;8.10;1.55;;;2.40;99.90;;;;;;5014345;28;20503;-80
2022/01/20 09:59:30;;;;;;;10.52;1.90;;;2.30;99.90;;;;;;4998444;28;20498;-81
2022/01/20 10:01:58;;;;;;;9.93;1.75;;;2.60;99.90;;;;;;5030250;28;20127;-80
2022/01/20 10:04:30;;;;;;;4.82;0.93;;;2.70;99.90;;;;;;5030380;28;20049;-82
2022/01/20 10:07:02;;;;;;;2.78;0.65;;;2.40;95.10;;;;;;5030515;28;20421;-80
2022/01/20 10:09:36;;;;;;;8.77;1.00;;;2.00;99.90;;;;;;5031091;28;20563;-80
2022/01/20 10:12:03;;;;;;;;;;;2.00;99.90;;;;;;5030759;28;20479;-82
2022/01/20 10:14:39;;;;;;;5.63;1.00;;;1.90;99.90;;;;;;5030196;28;19929;-82
2022/01/20 10:17:24;;;;;;;8.38;1.60;;;2.00;99.90;;;;;;5029902;28;20042;-80
2022/01/20 10:20:00;;;;;;;15.05;2.40;;;2.00;99.90;;;;;;5030270;28;20049;-81
2022/01/20 10:22:28;;;;;;;10.35;0.93;;;2.10;99.90;;;;;;5033525;28;20403;-80
2022/01/20 10:25:08;;;;;;;8.27;1.48;;;2.40;99.90;;;;;;5033688;28;20052;-80
2022/01/20 10:27:50;;;;;;;13.35;1.77;;;2.80;99.90;;;;;;5034504;28;20515;-80
2022/01/20 10:30:17;;;;;;;5.75;1.08;;;3.20;96.10;;;;;;5017730;28;20053;-80
2022/01/20 10:32:52;;;;;;;13.93;1.83;;;3.30;75.10;;;;;;5018157;28;20061;-80
2022/01/20 10:35:25;;;;;;;13.10;2.90;;;3.20;93.20;;;;;;5033979;28;20060;-80
2022/01/20 10:37:59;;;;;;;15.18;3.13;;;3.10;60.40;;;;;;5018094;28;20043;-80
2022/01/20 10:40:26;;;;;;;13.13;2.15;;;3.10;53.90;;;;;;5017956;28;20092;-82
2022/01/20 10:42:54;;;;;;;11.60;1.80;;;3.00;70.30;;;;;;5017857;28;20037;-80
2022/01/20 10:45:26;;;;;;;10.88;2.35;;;2.90;66.50;;;;;;5034159;28;20049;-80
2022/01/20 10:47:56;;;;;;;12.95;2.22;;;3.10;1.00;;;;;;5017847;28;20104;-80
2022/01/20 10:50:36;;;;;;;15.02;2.13;;;3.30;13.70;;;;;;5034212;28;20041;-80
2022/01/20 10:53:02;;;;;;;13.85;1.90;;;3.60;1.00;;;;;;5017734;28;20037;-82
2022/01/20 10:55:34;;;;;;;7.47;0.85;;;3.80;1.00;;;;;;5017446;28;20055;-81
2022/01/20 10:58:22;;;;;;;9.55;1.60;;;4.20;1.00;;;;;;5033990;28;20051;-81
2022/01/20 11:00:53;;;;;;;9.85;1.33;;;4.00;1.00;;;;;;5033975;28;20392;-81
2022/01/20 11:03:21;;;;;;;3.53;0.85;;;3.60;8.00;;;;;;5033680;28;20053;-82
2022/01/20 11:05:50;;;;;;;2.78;1.02;;;3.20;41.30;;;;;;5033876;28;20080;-81
2022/01/20 11:08:17;;;;;;;4.90;0.70;;;2.90;21.10;;;;;;5001250;28;20041;-81
2022/01/20 11:10:44;;;;;;;4.22;0.70;;;2.80;57.60;;;;;;5017487;28;20147;-80
2022/01/20 11:13:12;;;;;;;4.68;0.73;;;2.70;91.30;;;;;;5033581;28;20072;-81
2022/01/20 11:15:40;;;;;;;5.88;1.15;;;2.70;82.00;;;;;;5033175;28;20050;-80
2022/01/20 11:18:08;;;;;;;4.57;0.90;;;2.70;53.10;;;;;;5017011;28;20052;-82
2022/01/20 11:20:46;;;;;;;8.38;1.00;;;3.00;68.10;;;;;;5033395;28;20056;-80
2022/01/20 11:23:12;;;;;;;3.67;1.05;;;3.50;18.70;;;;;;5016975;28;20037;-80
2022/01/20 11:25:40;;;;;;;10.88;2.20;;;3.70;13.20;;;;;;5017121;28;20095;-82
2022/01/20 11:28:08;;;;;;;8.52;2.15;;;3.40;99.90;;;;;;5031782;28;20083;-82
2022/01/20 11:30:42;;;;;;;16.13;3.50;;;1.90;99.90;;;;;;5014562;28;20492;-82
2022/01/20 11:33:17;;;;;;;;;;;1.60;99.90;;;;;;5015525;28;20407;-84
2022/01/20 11:35:49;;;;;;;13.73;1.80;;;1.40;99.90;;;;;;5014781;28;19921;-83
2022/01/20 11:38:19;;;;;;;14.98;1.45;;;1.50;99.90;;;;;;5015235;28;20539;-81
2022/01/20 11:41:04;;;;;;;4.30;0.40;;;1.50;99.90;;;;;;5031188;28;20124;-83
2022/01/20 11:43:36;;;;;;;2.90;0.60;;;1.70;99.90;;;;;;5032125;28;20068;-83
2022/01/20 11:46:13;;;;;;;4.90;0.63;;;2.00;99.90;;;;;;5031306;28;20095;-83
2022/01/20 11:48:56;;;;;;;4.43;0.60;;;2.30;99.90;;;;;;5029019;28;20365;-82
2022/01/20 11:51:23;;;;;;;5.75;1.13;;;2.50;99.90;;;;;;5015155;28;20045;-80
2022/01/20 11:54:03;;;;;;;9.13;1.03;;;2.70;99.90;;;;;;5014672;28;20521;-82
2022/01/20 11:56:34;;;;;;;12.00;2.20;;;2.70;99.90;;;;;;5031350;28;20045;-80
2022/01/20 11:59:01;;;;;;;10.25;1.20;;;2.90;99.90;;;;;;5030070;28;20055;-80
2022/01/20 12:01:28;;;;;;;9.68;2.00;;;3.10;99.90;;;;;;5014633;28;20061;-81
2022/01/20 12:03:56;;;;;;;8.63;2.30;;;3.50;99.90;;;;;;5014202;28;20037;-80
2022/01/20 12:06:26;;;;;;;13.98;2.67;;;3.70;99.90;;;;;;5014292;28;20045;-80
2022/01/20 12:08:57;;;;;;;12.50;2.22;;;3.70;61.00;;;;;;5031642;28;20047;-80
2022/01/20 12:11:46;;;;;;;14.20;1.70;;;3.80;44.20;;;;;;5032251;28;20068;-82
2022/01/20 12:14:32;;;;;;;28.48;4.07;;;3.80;86.10;;;;;;5015521;28;20056;-81
2022/01/20 12:17:08;;;;;;;11.38;1.42;;;3.50;56.80;;;;;;5015447;28;20077;-81
2022/01/20 12:19:34;;;;;;;16.90;2.40;;;3.40;48.60;;;;;;5031965;28;20044;-82
2022/01/20 12:22:03;;;;;;;15.13;2.30;;;3.70;35.30;;;;;;5031299;28;20061;-80
2022/01/20 12:24:29;;;;;;;17.08;2.92;;;4.20;28.80;;;;;;5014750;28;20496;-81
2022/01/20 12:26:56;;;;;;;13.10;1.98;;;4.60;35.70;;;;;;5015264;28;20052;-81
2022/01/20 12:29:32;;;;;;;13.63;2.42;;;4.40;1.00;;;;;;5015126;28;20042;-81
2022/01/20 12:31:59;;;;;;;13.13;1.90;;;3.90;1.00;;;;;;5029692;28;20049;-81
2022/01/20 12:34:25;;;;;;;10.43;1.50;;;3.50;18.00;;;;;;4998954;28;20068;-80
2022/01/20 12:36:57;;;;;;;15.07;2.03;;;3.50;90.30;;;;;;5015201;28;20042;-80
2022/01/20 12:39:32;;;;;;;21.52;3.17;;;3.70;99.90;;;;;;4997984;28;20115;-82
2022/01/20 12:42:01;;;;;;;14.77;3.10;;;4.20;96.60;;;;;;4996727;28;20041;-82
2022/01/20 12:45:03;;;;;;;22.65;3.13;;;4.80;74.70;;;;;;5013246;28;20042;-82
2022/01/20 12:47:31;;;;;;;18.48;2.30;;;4.40;37.10;;;;;;5031232;28;20074;-81
2022/01/20 12:50:00;;;;;;;8.20;2.35;;;4.00;63.40;;;;;;5030699;28;20418;-81
2022/01/20 12:52:27;;;;;;;16.20;2.85;;;3.90;69.10;;;;;;5015094;28;20496;-81
2022/01/20 12:54:53;;;;;;;14.77;2.28;;;3.90;88.10;;;;;;5014523;28;20053;-80
2022/01/20 12:57:20;;;;;;;12.65;1.85;;;4.30;99.90;;;;;;5014756;28;20451;-82
2022/01/20 12:59:46;;;;;;;12.98;1.65;;;5.20;1.00;;;;;;5030215;28;20087;-83
2022/01/20 13:02:24;;;;;;;16.92;2.20;;;5.50;1.00;;;;;;5031191;28;20045;-83
2022/01/20 13:05:00;;;;;;;5.57;1.25;;;4.60;1.00;;;;;;5028285;28;20037;-80
2022/01/20 13:07:27;;;;;;;13.63;2.60;;;3.90;52.80;;;;;;5015192;28;20041;-82
2022/01/20 13:10:04;;;;;;;13.32;2.22;;;3.70;99.90;;;;;;5030299;28;20041;-79
2022/01/20 13:12:40;;;;;;;20.40;2.40;;;4.00;99.90;;;;;;5016268;28;20099;-81
2022/01/20 13:15:16;;;;;;;15.02;2.42;;;4.50;88.30;;;;;;5030302;28;20391;-80
2022/01/20 13:17:42;;;;;;;15.85;3.10;;;4.80;1.00;;;;;;5014289;28;20204;-82
2022/01/20 13:20:20;;;;;;;7.72;0.77;;;5.10;7.80;;;;;;5030841;28;20518;-82
2022/01/20 13:22:56;;;;;;;8.23;1.65;;;5.20;1.00;;;;;;5031652;28;20104;-81
2022/01/20 13:25:26;;;;;;;12.45;1.63;;;5.20;1.00;;;;;;5031472;28;20053;-82
2022/01/20 13:27:56;;;;;;;8.52;2.10;;;5.50;1.00;;;;;;5030807;28;20042;-80
2022/01/20 13:30:30;;;;;;;9.85;1.58;;;4.90;1.00;;;;;;5029592;28;20066;-80
2022/01/20 13:32:56;;;;;;;;;;;4.10;5.00;;;;;;5014475;28;20045;-82
2022/01/20 13:35:22;;;;;;;13.25;1.17;;;3.10;99.90;;;;;;5031231;28;19921;-81
2022/01/20 13:38:00;;;;;;;8.73;1.52;;;2.70;99.90;;;;;;4998066;28;20038;-81
2022/01/20 13:40:26;;;;;;;11.10;1.98;;;2.80;99.90;;;;;;5030228;28;20116;-81
2022/01/20 13:45:43;;;;;;;14.57;3.40;;;4.30;91.50;;;;;;5015552;28;20050;-80
2022/01/20 13:48:12;;;;;;;7.03;1.33;;;4.70;19.70;;;;;;5028678;28;20030;-81
2022/01/20 13:50:44;;;;;;;11.85;2.28;;;4.80;7.50;;;;;;5028316;28;20041;-80
2022/01/20 13:53:31;;;;;;;15.35;1.67;;;4.20;1.00;;;;;;5029022;28;20387;-82
2022/01/20 13:56:02;;;;;;;10.45;2.13;;;3.70;19.10;;;;;;5016267;28;20376;-80
2022/01/20 13:58:31;;;;;;;10.25;2.22;;;3.20;99.90;;;;;;5016254;28;20040;-81
2022/01/20 14:00:59;;;;;;;8.68;1.02;;;2.40;99.90;;;;;;5034116;28;20403;-83
2022/01/20 14:03:25;;;;;;;6.80;0.93;;;2.10;99.90;;;;;;5034089;28;20073;-80
2022/01/20 14:05:57;;;;;;;16.37;1.57;;;2.10;99.90;;;;;;5033638;28;20496;-82
2022/01/20 14:08:24;;;;;;;11.57;2.10;;;2.20;99.90;;;;;;5017152;28;20041;-80